Time;durP1;ratioP1;P1;durP2;ratioP2;P2;SDS_P1;SDS_P2;PMS_P1;PMS_P2;Temp;Humidity;BMP_temperature;BMP_pressure;BME280_temperature;BME280_humidity;BME280_pressure;Samples;Min_cycle;Max_cycle;Signal;HPM_P1;HPM_P2
2023/07/22 00:00:29;;;;;;;5.05;1.38;;;;;;;;;;5109505;28;20048;-66
2023/07/22 00:02:55;;;;;;;5.53;1.48;;;;;;;;;;5101933;28;20153;-66
2023/07/22 00:05:23;;;;;;;6.82;2.10;;;;;;;;;;5092870;28;20071;-66
2023/07/22 00:07:53;;;;;;;5.22;1.52;;;;;;;;;;5098838;28;20055;-66
2023/07/22 00:10:19;;;;;;;4.65;1.52;;;;;;;;;;5105925;28;20039;-66
2023/07/22 00:12:45;;;;;;;3.78;1.13;;;;;;;;;;5106977;28;20046;-66
2023/07/22 00:15:11;;;;;;;4.50;1.65;;;;;;;;;;5106958;28;20048;-66
2023/07/22 00:17:38;;;;;;;4.13;1.50;;;;;;;;;;5110350;28;20040;-66
2023/07/22 00:20:05;;;;;;;5.30;1.90;;;;;;;;;;5111057;28;20051;-66
2023/07/22 00:22:31;;;;;;;5.25;1.35;;;;;;;;;;5116851;27;20044;-66
2023/07/22 00:25:00;;;;;;;5.13;1.70;;;;;;;;;;5118717;27;20066;-66
2023/07/22 00:27:26;;;;;;;6.63;2.00;;;;;;;;;;5112799;28;20136;-66
2023/07/22 00:29:53;;;;;;;3.63;1.40;;;;;;;;;;5111709;27;20513;-66
2023/07/22 00:32:19;;;;;;;3.25;1.30;;;;;;;;;;5105913;28;20109;-66
2023/07/22 00:34:46;;;;;;;4.68;1.80;;;;;;;;;;5135667;27;20179;-66
2023/07/22 00:37:12;;;;;;;5.28;1.65;;;;;;;;;;5100930;27;20071;-66
2023/07/22 00:39:38;;;;;;;5.07;1.52;;;;;;;;;;5105917;28;20081;-66
2023/07/22 00:42:04;;;;;;;5.28;1.88;;;;;;;;;;5112460;28;20071;-66
2023/07/22 00:44:31;;;;;;;4.43;1.58;;;;;;;;;;5119503;27;20054;-66
2023/07/22 00:46:58;;;;;;;5.95;2.20;;;;;;;;;;5109134;27;20036;-66
2023/07/22 00:49:25;;;;;;;6.93;2.28;;;;;;;;;;5110525;27;20066;-66
2023/07/22 00:51:52;;;;;;;4.85;2.50;;;;;;;;;;5108969;28;20403;-66
2023/07/22 00:54:18;;;;;;;6.10;2.05;;;;;;;;;;5111933;28;20082;-66
2023/07/22 00:56:44;;;;;;;6.57;2.30;;;;;;;;;;5110457;27;20039;-66
2023/07/22 00:59:11;;;;;;;4.95;2.20;;;;;;;;;;5108149;27;20048;-66
2023/07/22 01:01:37;;;;;;;6.10;2.30;;;;;;;;;;5109852;27;20054;-66
2023/07/22 01:04:04;;;;;;;6.97;2.17;;;;;;;;;;5113229;28;20043;-66
2023/07/22 01:06:30;;;;;;;6.15;2.65;;;;;;;;;;5110595;27;20459;-66
2023/07/22 01:08:59;;;;;;;4.88;2.17;;;;;;;;;;5112752;28;20040;-66
2023/07/22 01:11:25;;;;;;;6.78;2.38;;;;;;;;;;5108973;27;20174;-66
2023/07/22 01:13:57;;;;;;;4.13;2.00;;;;;;;;;;5105981;28;20510;-66
2023/07/22 01:16:25;;;;;;;4.85;2.10;;;;;;;;;;5112921;28;20048;-66
2023/07/22 01:18:51;;;;;;;7.03;1.98;;;;;;;;;;5111330;28;20483;-66
2023/07/22 01:21:17;;;;;;;3.90;1.85;;;;;;;;;;5110319;28;20051;-66
2023/07/22 01:23:44;;;;;;;5.38;2.38;;;;;;;;;;5110419;28;20027;-66
2023/07/22 01:26:10;;;;;;;8.10;2.35;;;;;;;;;;5104611;28;20112;-66
2023/07/22 01:28:36;;;;;;;5.93;2.30;;;;;;;;;;5107785;27;20054;-66
2023/07/22 01:31:03;;;;;;;7.05;2.78;;;;;;;;;;5094926;28;20051;-66
2023/07/22 01:33:30;;;;;;;7.53;2.65;;;;;;;;;;5103831;27;20043;-66
2023/07/22 01:35:56;;;;;;;5.32;2.55;;;;;;;;;;5105708;27;20463;-66
2023/07/22 01:38:22;;;;;;;7.80;2.40;;;;;;;;;;5107248;28;20040;-66
2023/07/22 01:40:48;;;;;;;6.05;2.67;;;;;;;;;;5104299;28;20046;-66
2023/07/22 01:43:14;;;;;;;5.50;2.30;;;;;;;;;;5113029;28;20515;-66
2023/07/22 01:45:42;;;;;;;6.45;2.67;;;;;;;;;;5111619;28;20039;-66
2023/07/22 01:48:08;;;;;;;6.30;2.58;;;;;;;;;;5110003;28;20047;-66
2023/07/22 01:50:34;;;;;;;5.05;2.28;;;;;;;;;;5106306;28;20590;-66
2023/07/22 01:53:01;;;;;;;4.68;2.38;;;;;;;;;;5111901;28;20043;-66
2023/07/22 01:55:27;;;;;;;3.97;2.35;;;;;;;;;;5109533;28;20130;-66
2023/07/22 01:57:54;;;;;;;3.38;1.98;;;;;;;;;;5107456;28;20044;-66
2023/07/22 02:00:20;;;;;;;3.38;1.67;;;;;;;;;;5103388;28;20513;-66
2023/07/22 02:02:47;;;;;;;5.53;2.08;;;;;;;;;;5105124;28;20043;-66
2023/07/22 02:05:13;;;;;;;7.85;2.50;;;;;;;;;;5104036;27;20455;-66
2023/07/22 02:07:39;;;;;;;6.25;2.75;;;;;;;;;;5105354;28;20118;-66
2023/07/22 02:10:06;;;;;;;5.30;2.30;;;;;;;;;;5103851;28;20058;-66
2023/07/22 02:12:32;;;;;;;5.45;2.67;;;;;;;;;;5103577;28;21293;-66
2023/07/22 02:14:59;;;;;;;4.38;2.47;;;;;;;;;;5104833;28;20039;-66
2023/07/22 02:17:25;;;;;;;4.88;2.17;;;;;;;;;;5103171;28;20048;-66
2023/07/22 02:19:51;;;;;;;4.40;2.20;;;;;;;;;;5104404;28;20122;-66
2023/07/22 02:22:17;;;;;;;8.05;2.50;;;;;;;;;;5102856;27;20380;-66
2023/07/22 02:24:43;;;;;;;5.13;2.05;;;;;;;;;;5100652;28;20062;-66
2023/07/22 02:27:10;;;;;;;3.67;2.10;;;;;;;;;;5102800;28;20035;-66
2023/07/22 02:29:36;;;;;;;3.78;1.98;;;;;;;;;;5103269;28;20042;-66
2023/07/22 02:32:03;;;;;;;5.25;2.50;;;;;;;;;;5101622;27;20040;-66
2023/07/22 02:34:29;;;;;;;6.78;2.97;;;;;;;;;;5111276;28;20502;-66
2023/07/22 02:36:55;;;;;;;5.47;3.15;;;;;;;;;;5103127;28;20039;-66
2023/07/22 02:39:22;;;;;;;5.72;3.03;;;;;;;;;;5102574;27;20123;-66
2023/07/22 02:41:48;;;;;;;6.13;3.28;;;;;;;;;;5133538;27;20040;-66
2023/07/22 02:44:14;;;;;;;5.32;2.72;;;;;;;;;;5101176;28;20289;-66
2023/07/22 02:46:43;;;;;;;10.00;3.88;;;;;;;;;;5116701;27;20142;-66
2023/07/22 02:49:09;;;;;;;6.28;2.97;;;;;;;;;;5102270;28;20067;-66
2023/07/22 02:51:36;;;;;;;6.13;3.00;;;;;;;;;;5100461;28;20043;-66
2023/07/22 02:54:03;;;;;;;5.97;2.78;;;;;;;;;;5102549;28;20036;-66
2023/07/22 02:56:29;;;;;;;7.38;3.33;;;;;;;;;;5105740;27;20035;-66
2023/07/22 02:58:56;;;;;;;5.28;3.47;;;;;;;;;;5094548;28;20051;-66
2023/07/22 03:01:23;;;;;;;6.10;2.97;;;;;;;;;;5102466;28;20044;-66
2023/07/22 03:03:49;;;;;;;6.72;3.53;;;;;;;;;;5100729;27;20051;-66
2023/07/22 03:06:15;;;;;;;7.97;3.30;;;;;;;;;;5103328;28;20115;-66
2023/07/22 03:08:41;;;;;;;8.95;3.42;;;;;;;;;;5100273;28;20039;-66
2023/07/22 03:11:08;;;;;;;5.78;2.92;;;;;;;;;;5091862;28;20173;-66
2023/07/22 03:13:34;;;;;;;7.97;3.35;;;;;;;;;;5098939;27;20047;-66
2023/07/22 03:16:04;;;;;;;6.45;3.55;;;;;;;;;;5101481;28;20126;-66
2023/07/22 03:18:30;;;;;;;9.07;3.67;;;;;;;;;;5101731;28;20114;-66
2023/07/22 03:20:57;;;;;;;6.75;3.22;;;;;;;;;;5117440;27;20377;-66
2023/07/22 03:23:23;;;;;;;6.05;3.00;;;;;;;;;;5101744;28;20429;-66
2023/07/22 03:25:49;;;;;;;5.15;2.67;;;;;;;;;;5102899;28;20127;-66
2023/07/22 03:28:16;;;;;;;5.88;3.55;;;;;;;;;;5083997;28;20047;-66
2023/07/22 03:30:42;;;;;;;7.50;3.20;;;;;;;;;;5101199;27;20135;-66
2023/07/22 03:33:09;;;;;;;5.10;2.92;;;;;;;;;;5100704;28;20495;-66
2023/07/22 03:35:36;;;;;;;6.30;3.67;;;;;;;;;;5100205;28;20035;-66
2023/07/22 03:38:04;;;;;;;6.55;2.95;;;;;;;;;;5101937;28;20065;-66
2023/07/22 03:40:31;;;;;;;7.70;3.63;;;;;;;;;;5101269;28;20114;-66
2023/07/22 03:42:57;;;;;;;7.07;3.75;;;;;;;;;;5109400;28;20043;-66
2023/07/22 03:45:24;;;;;;;10.18;3.55;;;;;;;;;;5104892;28;20127;-66
2023/07/22 03:47:52;;;;;;;5.60;3.10;;;;;;;;;;5102912;28;20374;-66
2023/07/22 03:50:18;;;;;;;6.90;3.47;;;;;;;;;;5101683;28;20166;-66
2023/07/22 03:52:45;;;;;;;7.25;3.40;;;;;;;;;;5103032;28;20146;-66
2023/07/22 03:55:11;;;;;;;9.55;3.60;;;;;;;;;;5097858;28;20089;-66
2023/07/22 03:57:37;;;;;;;6.13;3.45;;;;;;;;;;5101245;28;20046;-66
2023/07/22 04:00:05;;;;;;;7.43;3.45;;;;;;;;;;5091152;28;20273;-66
2023/07/22 04:02:31;;;;;;;9.50;3.55;;;;;;;;;;5101774;28;20047;-66
2023/07/22 04:04:58;;;;;;;7.43;3.60;;;;;;;;;;5108272;28;20044;-66
2023/07/22 04:07:24;;;;;;;8.00;3.55;;;;;;;;;;5108265;28;20043;-66
2023/07/22 04:09:50;;;;;;;5.32;2.80;;;;;;;;;;5108380;28;20479;-66
2023/07/22 04:12:17;;;;;;;9.93;3.72;;;;;;;;;;5108861;28;20582;-66
2023/07/22 04:14:43;;;;;;;8.43;4.30;;;;;;;;;;5110242;28;20076;-66
2023/07/22 04:17:09;;;;;;;6.05;3.47;;;;;;;;;;5110527;28;20078;-64
2023/07/22 04:19:35;;;;;;;7.68;3.92;;;;;;;;;;5105320;28;20036;-64
2023/07/22 04:22:04;;;;;;;6.35;3.65;;;;;;;;;;5108884;28;20402;-66
2023/07/22 04:24:31;;;;;;;9.55;4.03;;;;;;;;;;5103990;28;20430;-66
2023/07/22 04:26:57;;;;;;;9.00;4.07;;;;;;;;;;5106597;28;20145;-66
2023/07/22 04:29:24;;;;;;;8.40;3.15;;;;;;;;;;5104915;28;20620;-66
2023/07/22 04:31:50;;;;;;;8.18;3.47;;;;;;;;;;5103698;28;20039;-66
2023/07/22 04:34:16;;;;;;;8.98;3.92;;;;;;;;;;5099843;28;20426;-66
2023/07/22 04:36:43;;;;;;;10.18;4.28;;;;;;;;;;5099205;28;20050;-66
2023/07/22 04:39:09;;;;;;;8.70;4.47;;;;;;;;;;5100142;28;20407;-66
2023/07/22 04:41:35;;;;;;;9.15;4.07;;;;;;;;;;5100218;28;20075;-66
2023/07/22 04:44:02;;;;;;;9.80;4.85;;;;;;;;;;5101007;28;20043;-66
2023/07/22 04:46:28;;;;;;;11.98;4.47;;;;;;;;;;5099825;28;20062;-66
2023/07/22 04:48:55;;;;;;;9.50;4.70;;;;;;;;;;5100212;28;20055;-66
2023/07/22 04:51:21;;;;;;;10.65;4.93;;;;;;;;;;5100342;28;20043;-66
2023/07/22 04:53:47;;;;;;;11.80;5.20;;;;;;;;;;5101994;28;20186;-66
2023/07/22 04:56:14;;;;;;;13.45;5.13;;;;;;;;;;5100944;28;20154;-66
2023/07/22 04:58:40;;;;;;;14.75;5.88;;;;;;;;;;5100989;28;20100;-66
2023/07/22 05:01:06;;;;;;;12.60;5.57;;;;;;;;;;5099348;28;20089;-66
2023/07/22 05:03:32;;;;;;;11.05;5.75;;;;;;;;;;5099810;28;20419;-66
2023/07/22 05:05:58;;;;;;;15.88;6.05;;;;;;;;;;5100867;28;20032;-66
2023/07/22 05:08:24;;;;;;;15.68;5.80;;;;;;;;;;5103661;27;20043;-66
2023/07/22 05:10:51;;;;;;;15.93;6.78;;;;;;;;;;5103739;28;20460;-66
2023/07/22 05:13:17;;;;;;;13.98;6.78;;;;;;;;;;5104604;27;20043;-66
2023/07/22 05:15:43;;;;;;;17.52;7.60;;;;;;;;;;5085462;28;20059;-66
2023/07/22 05:18:09;;;;;;;18.23;7.85;;;;;;;;;;5103549;28;20038;-66
2023/07/22 05:20:35;;;;;;;14.45;7.97;;;;;;;;;;5105481;28;20063;-66
2023/07/22 05:23:02;;;;;;;17.77;8.18;;;;;;;;;;5102420;28;20138;-66
2023/07/22 05:25:28;;;;;;;19.23;8.23;;;;;;;;;;5107982;27;20054;-66
2023/07/22 05:27:54;;;;;;;19.02;8.52;;;;;;;;;;5106760;27;20074;-68
2023/07/22 05:30:21;;;;;;;20.35;9.25;;;;;;;;;;5106978;28;20123;-66
2023/07/22 05:32:47;;;;;;;19.83;9.90;;;;;;;;;;5108506;27;20040;-66
2023/07/22 05:35:13;;;;;;;21.00;9.73;;;;;;;;;;5111300;28;20397;-65
2023/07/22 05:37:39;;;;;;;23.90;10.70;;;;;;;;;;5112147;28;20044;-66
2023/07/22 05:40:07;;;;;;;20.60;9.68;;;;;;;;;;5114304;28;20099;-65
2023/07/22 05:42:33;;;;;;;21.65;10.35;;;;;;;;;;5112954;28;20446;-66
2023/07/22 05:45:00;;;;;;;19.33;10.50;;;;;;;;;;5113450;28;20040;-66
2023/07/22 05:47:27;;;;;;;19.35;10.32;;;;;;;;;;5105282;27;20043;-66
2023/07/22 05:49:53;;;;;;;21.95;9.68;;;;;;;;;;5103594;27;20040;-66
2023/07/22 05:52:19;;;;;;;21.42;9.60;;;;;;;;;;5104367;28;20131;-66
2023/07/22 05:54:45;;;;;;;19.52;9.85;;;;;;;;;;5105046;27;20048;-66
2023/07/22 05:57:12;;;;;;;22.35;10.43;;;;;;;;;;5104095;27;20047;-66
2023/07/22 05:59:39;;;;;;;17.92;8.93;;;;;;;;;;5107080;28;20035;-66
2023/07/22 06:02:05;;;;;;;15.50;8.32;;;;;;;;;;5112731;28;20100;-67
2023/07/22 06:04:32;;;;;;;17.25;9.05;;;;;;;;;;5114289;28;20058;-66
2023/07/22 06:06:58;;;;;;;20.13;8.80;;;;;;;;;;5113668;28;20452;-67
2023/07/22 06:09:24;;;;;;;16.27;8.35;;;;;;;;;;5110734;28;20051;-67
2023/07/22 06:11:50;;;;;;;18.98;8.55;;;;;;;;;;5112292;28;20111;-67
2023/07/22 06:14:16;;;;;;;17.77;9.02;;;;;;;;;;5113540;28;20054;-66
2023/07/22 06:16:43;;;;;;;18.27;9.95;;;;;;;;;;5112980;28;20409;-66
2023/07/22 06:19:09;;;;;;;22.98;10.35;;;;;;;;;;5092449;28;20069;-66
2023/07/22 06:21:35;;;;;;;22.27;10.73;;;;;;;;;;5112599;28;20032;-66
2023/07/22 06:24:01;;;;;;;21.65;11.65;;;;;;;;;;5112708;28;20035;-66
2023/07/22 06:26:27;;;;;;;18.58;11.10;;;;;;;;;;5112741;28;20126;-67
2023/07/22 06:28:54;;;;;;;22.17;10.20;;;;;;;;;;5106094;27;20044;-66
2023/07/22 06:31:21;;;;;;;21.55;11.73;;;;;;;;;;5112740;28;20039;-67
2023/07/22 06:33:47;;;;;;;19.15;10.93;;;;;;;;;;5113243;28;20059;-67
2023/07/22 06:36:13;;;;;;;19.05;10.82;;;;;;;;;;5107633;28;20059;-66
2023/07/22 06:38:39;;;;;;;23.77;11.65;;;;;;;;;;5110123;27;20536;-67
2023/07/22 06:41:06;;;;;;;23.83;12.40;;;;;;;;;;5111331;27;20043;-67
2023/07/22 06:43:32;;;;;;;20.52;10.93;;;;;;;;;;5111659;28;20121;-67
2023/07/22 06:45:58;;;;;;;20.77;10.35;;;;;;;;;;5112871;27;20035;-66
2023/07/22 06:48:24;;;;;;;19.90;10.95;;;;;;;;;;5112039;28;20078;-66
2023/07/22 06:50:51;;;;;;;22.25;11.50;;;;;;;;;;5109913;27;20209;-66
2023/07/22 06:53:17;;;;;;;18.27;11.15;;;;;;;;;;5113498;28;20120;-67
2023/07/22 06:55:51;;;;;;;23.00;12.15;;;;;;;;;;5110978;28;20451;-67
2023/07/22 06:58:17;;;;;;;20.63;11.55;;;;;;;;;;5109820;28;20051;-66
2023/07/22 07:00:43;;;;;;;19.38;11.00;;;;;;;;;;5112368;27;20139;-65
2023/07/22 07:03:09;;;;;;;20.30;11.68;;;;;;;;;;5111326;28;20482;-68
2023/07/22 07:05:36;;;;;;;22.73;11.43;;;;;;;;;;5113466;28;20039;-68
2023/07/22 07:08:02;;;;;;;20.35;12.45;;;;;;;;;;5113115;28;20100;-68
2023/07/22 07:10:28;;;;;;;20.00;11.27;;;;;;;;;;5111382;27;20047;-68
2023/07/22 07:12:54;;;;;;;23.48;12.15;;;;;;;;;;5112535;27;20104;-68
2023/07/22 07:15:21;;;;;;;27.85;13.55;;;;;;;;;;5107864;28;20371;-74
2023/07/22 07:17:47;;;;;;;22.88;12.98;;;;;;;;;;5107718;28;20103;-74
2023/07/22 07:20:14;;;;;;;23.00;12.65;;;;;;;;;;5109356;28;20088;-74
2023/07/22 07:22:41;;;;;;;25.38;12.35;;;;;;;;;;5112131;28;20075;-71
2023/07/22 07:25:07;;;;;;;22.85;12.43;;;;;;;;;;5110933;28;20043;-70
2023/07/22 07:27:33;;;;;;;20.58;12.13;;;;;;;;;;5106577;28;20054;-71
2023/07/22 07:29:59;;;;;;;22.02;11.88;;;;;;;;;;5108893;27;20048;-70
2023/07/22 07:32:25;;;;;;;27.67;13.38;;;;;;;;;;5107381;28;20031;-70
2023/07/22 07:34:52;;;;;;;23.15;12.48;;;;;;;;;;5111722;28;20043;-70
2023/07/22 07:37:18;;;;;;;28.95;13.80;;;;;;;;;;5109664;27;20044;-74
2023/07/22 07:39:44;;;;;;;20.20;12.15;;;;;;;;;;5109306;27;20038;-76
2023/07/22 07:42:10;;;;;;;22.30;12.63;;;;;;;;;;5108107;27;20230;-68
2023/07/22 07:44:37;;;;;;;20.75;12.60;;;;;;;;;;5106537;28;20388;-67
2023/07/22 07:47:03;;;;;;;21.67;12.02;;;;;;;;;;5109688;28;20048;-67
2023/07/22 07:49:29;;;;;;;21.30;11.48;;;;;;;;;;5111150;28;20122;-67
2023/07/22 07:51:55;;;;;;;23.25;11.98;;;;;;;;;;5110404;28;20044;-67
2023/07/22 07:54:22;;;;;;;22.45;11.70;;;;;;;;;;5109884;28;20060;-67
2023/07/22 07:56:48;;;;;;;17.77;10.85;;;;;;;;;;5111829;28;20053;-67
2023/07/22 07:59:14;;;;;;;17.30;9.80;;;;;;;;;;5108395;28;20077;-67
2023/07/22 08:01:41;;;;;;;18.35;10.07;;;;;;;;;;5106298;28;20032;-67
2023/07/22 08:04:08;;;;;;;17.65;9.52;;;;;;;;;;5111877;28;20132;-67
2023/07/22 08:06:36;;;;;;;15.82;9.90;;;;;;;;;;5111173;28;20031;-67
2023/07/22 08:09:02;;;;;;;20.67;10.48;;;;;;;;;;5111939;28;20081;-67
2023/07/22 08:11:29;;;;;;;17.42;10.02;;;;;;;;;;5110736;28;20060;-68
2023/07/22 08:13:55;;;;;;;17.60;9.63;;;;;;;;;;5111057;28;20367;-68
2023/07/22 08:16:21;;;;;;;15.27;9.35;;;;;;;;;;5112072;28;20040;-67
2023/07/22 08:18:47;;;;;;;12.88;8.25;;;;;;;;;;5111945;28;20372;-67
2023/07/22 08:21:13;;;;;;;14.90;7.45;;;;;;;;;;5111436;28;20038;-67
2023/07/22 08:23:40;;;;;;;11.38;6.72;;;;;;;;;;5112130;28;20437;-67
2023/07/22 08:26:06;;;;;;;10.48;6.18;;;;;;;;;;5112095;28;20105;-68
2023/07/22 08:28:32;;;;;;;14.57;6.78;;;;;;;;;;5110048;28;20142;-67
2023/07/22 08:31:00;;;;;;;10.43;6.00;;;;;;;;;;5110984;28;20149;-67
2023/07/22 08:33:26;;;;;;;10.70;5.90;;;;;;;;;;5111599;28;20047;-68
2023/07/22 08:35:53;;;;;;;11.88;6.22;;;;;;;;;;5111014;28;20032;-68
2023/07/22 08:38:19;;;;;;;10.73;6.43;;;;;;;;;;5112011;28;20043;-67
2023/07/22 08:40:48;;;;;;;10.68;6.32;;;;;;;;;;5110577;28;20043;-67
2023/07/22 08:43:15;;;;;;;10.45;6.20;;;;;;;;;;5115200;28;20079;-67
2023/07/22 08:45:42;;;;;;;14.55;6.55;;;;;;;;;;5129841;27;20082;-67
2023/07/22 08:48:09;;;;;;;13.18;6.93;;;;;;;;;;5114589;28;20121;-67
2023/07/22 08:50:54;;;;;;;10.48;6.93;;;;;;;;;;5114780;28;20510;-67
2023/07/22 08:53:20;;;;;;;12.88;6.75;;;;;;;;;;5106691;28;20092;-67
2023/07/22 08:55:47;;;;;;;8.70;5.35;;;;;;;;;;5115184;28;20177;-67
2023/07/22 08:58:14;;;;;;;10.43;6.00;;;;;;;;;;5114877;28;20061;-67
2023/07/22 09:00:41;;;;;;;12.32;6.60;;;;;;;;;;5113862;28;20130;-67
2023/07/22 09:03:07;;;;;;;10.85;6.43;;;;;;;;;;5114391;28;20043;-67
2023/07/22 09:05:34;;;;;;;8.70;5.40;;;;;;;;;;5114477;28;20040;-67
2023/07/22 09:08:04;;;;;;;7.88;5.20;;;;;;;;;;5115254;28;20054;-67
2023/07/22 09:10:31;;;;;;;9.88;6.15;;;;;;;;;;5128962;27;20039;-67
2023/07/22 09:13:01;;;;;;;8.68;6.10;;;;;;;;;;5114417;28;20382;-67
2023/07/22 09:15:27;;;;;;;22.05;14.38;;;;;;;;;;5115450;28;20036;-67
2023/07/22 09:17:53;;;;;;;24.05;14.60;;;;;;;;;;5114391;28;20043;-67
2023/07/22 09:20:20;;;;;;;28.90;16.10;;;;;;;;;;5115227;28;20584;-67
2023/07/22 09:22:48;;;;;;;25.95;15.95;;;;;;;;;;5131058;27;20404;-67
2023/07/22 09:25:17;;;;;;;33.78;17.63;;;;;;;;;;5114328;28;20036;-67
2023/07/22 09:27:43;;;;;;;27.40;16.83;;;;;;;;;;5113765;28;20039;-66
2023/07/22 09:30:33;;;;;;;26.77;16.30;;;;;;;;;;5115103;28;20423;-67
2023/07/22 09:33:03;;;;;;;31.45;16.58;;;;;;;;;;5115043;28;20420;-66
2023/07/22 09:35:48;;;;;;;31.52;15.65;;;;;;;;;;5114844;28;20040;-66
2023/07/22 09:38:15;;;;;;;27.33;15.65;;;;;;;;;;5112921;28;20051;-66
2023/07/22 09:40:42;;;;;;;26.55;15.07;;;;;;;;;;5114886;28;20051;-66
2023/07/22 09:43:10;;;;;;;21.38;12.65;;;;;;;;;;5113514;28;20081;-66
2023/07/22 09:45:39;;;;;;;24.85;12.13;;;;;;;;;;5112592;28;20400;-67
2023/07/22 09:48:06;;;;;;;12.82;7.63;;;;;;;;;;5114768;28;20515;-66
2023/07/22 09:50:32;;;;;;;11.52;6.85;;;;;;;;;;5114292;28;20063;-66
2023/07/22 09:52:59;;;;;;;10.23;6.78;;;;;;;;;;5111053;28;20483;-66
2023/07/22 09:55:28;;;;;;;8.55;4.93;;;;;;;;;;5113496;28;20051;-67
2023/07/22 09:57:56;;;;;;;11.20;5.03;;;;;;;;;;5112294;28;20062;-66
2023/07/22 10:00:25;;;;;;;8.38;5.07;;;;;;;;;;5112393;28;20055;-66
2023/07/22 10:02:52;;;;;;;6.07;4.53;;;;;;;;;;5114264;28;20087;-66
2023/07/22 10:05:20;;;;;;;9.20;4.90;;;;;;;;;;5114319;28;20039;-67
2023/07/22 10:07:47;;;;;;;8.93;4.80;;;;;;;;;;5112100;28;20047;-66
2023/07/22 10:10:15;;;;;;;10.93;5.57;;;;;;;;;;5104634;28;20043;-66
2023/07/22 10:12:42;;;;;;;9.27;5.03;;;;;;;;;;5113319;28;20051;-66
2023/07/22 10:15:10;;;;;;;9.25;5.25;;;;;;;;;;5112771;28;20066;-67
2023/07/22 10:17:36;;;;;;;9.00;5.18;;;;;;;;;;5113845;28;20035;-66
2023/07/22 10:20:07;;;;;;;7.05;4.75;;;;;;;;;;5111908;28;20062;-66
2023/07/22 10:22:37;;;;;;;7.03;3.72;;;;;;;;;;5114186;28;20097;-66
2023/07/22 10:25:07;;;;;;;7.47;4.50;;;;;;;;;;5113857;28;20092;-66
2023/07/22 10:27:35;;;;;;;6.75;4.03;;;;;;;;;;5113090;28;20063;-66
2023/07/22 10:30:02;;;;;;;8.88;4.43;;;;;;;;;;5112604;28;20098;-66
2023/07/22 10:32:36;;;;;;;6.88;4.60;;;;;;;;;;5114003;28;20028;-66
2023/07/22 10:35:03;;;;;;;7.93;3.83;;;;;;;;;;5113036;28;20051;-66
2023/07/22 10:37:35;;;;;;;8.13;4.50;;;;;;;;;;5110894;28;20501;-66
2023/07/22 10:40:18;;;;;;;8.10;4.75;;;;;;;;;;5112424;28;20491;-66
2023/07/22 10:42:51;;;;;;;7.78;5.15;;;;;;;;;;5099526;28;20510;-66
2023/07/22 10:45:28;;;;;;;9.02;5.60;;;;;;;;;;5113728;28;20051;-66
2023/07/22 10:48:01;;;;;;;11.32;6.43;;;;;;;;;;5102044;28;20039;-67
2023/07/22 10:50:40;;;;;;;11.85;8.18;;;;;;;;;;5112115;28;20155;-67
2023/07/22 10:53:06;;;;;;;15.88;8.25;;;;;;;;;;5112044;28;20474;-66
2023/07/22 10:55:32;;;;;;;15.73;7.43;;;;;;;;;;5112848;28;20036;-66
2023/07/22 10:58:05;;;;;;;13.27;8.77;;;;;;;;;;5112288;28;20039;-66
2023/07/22 11:00:31;;;;;;;14.20;8.13;;;;;;;;;;5112664;28;20054;-66
2023/07/22 11:03:11;;;;;;;13.60;8.43;;;;;;;;;;5112254;28;20044;-66
2023/07/22 11:05:50;;;;;;;9.10;6.22;;;;;;;;;;5111698;28;20099;-66
2023/07/22 11:08:17;;;;;;;11.23;7.65;;;;;;;;;;5112409;28;20139;-66
2023/07/22 11:10:54;;;;;;;9.82;6.65;;;;;;;;;;5112495;28;20046;-66
2023/07/22 11:13:27;;;;;;;9.55;5.53;;;;;;;;;;5112538;28;20059;-66
2023/07/22 11:15:53;;;;;;;;;;;;;;;;;;5113060;28;20371;-66
2023/07/22 11:18:19;;;;;;;13.15;6.60;;;;;;;;;;5110775;28;20410;-66
2023/07/22 11:20:46;;;;;;;10.70;6.88;;;;;;;;;;5113116;27;20039;-66
2023/07/22 11:23:12;;;;;;;15.93;7.47;;;;;;;;;;5110683;28;20043;-66
2023/07/22 11:25:38;;;;;;;26.85;8.75;;;;;;;;;;5112950;28;20398;-66
2023/07/22 11:28:05;;;;;;;19.58;9.77;;;;;;;;;;5112676;28;20063;-65
2023/07/22 11:30:32;;;;;;;16.45;8.93;;;;;;;;;;5111910;28;20039;-66
2023/07/22 11:32:59;;;;;;;18.08;10.25;;;;;;;;;;5112867;28;20421;-65
2023/07/22 11:35:25;;;;;;;18.63;10.00;;;;;;;;;;5112604;28;20443;-66
2023/07/22 11:38:01;;;;;;;15.57;9.90;;;;;;;;;;5109517;28;20039;-66
2023/07/22 11:40:33;;;;;;;16.77;11.20;;;;;;;;;;5111534;28;20082;-65
2023/07/22 11:43:00;;;;;;;21.58;11.98;;;;;;;;;;5111303;28;20043;-66
2023/07/22 11:45:26;;;;;;;14.98;10.75;;;;;;;;;;5111428;28;20110;-66
2023/07/22 11:47:53;;;;;;;16.55;9.27;;;;;;;;;;5112357;28;20106;-65
2023/07/22 11:50:19;;;;;;;15.18;10.18;;;;;;;;;;5112214;28;20100;-66
2023/07/22 11:52:52;;;;;;;13.57;8.93;;;;;;;;;;5111277;28;20051;-66
2023/07/22 11:55:19;;;;;;;;;;;;;;;;;;5112961;28;20050;-66
2023/07/22 11:57:52;;;;;;;13.45;8.65;;;;;;;;;;5112142;28;19935;-66
2023/07/22 12:00:18;;;;;;;11.07;7.60;;;;;;;;;;5110524;28;20329;-66
2023/07/22 12:02:45;;;;;;;12.13;7.18;;;;;;;;;;5112253;28;20040;-66
2023/07/22 12:05:11;;;;;;;10.35;6.55;;;;;;;;;;5111979;28;20126;-65
2023/07/22 12:07:38;;;;;;;11.68;7.15;;;;;;;;;;5111469;28;20040;-66
2023/07/22 12:10:06;;;;;;;11.27;7.13;;;;;;;;;;5110553;28;20539;-66
2023/07/22 12:12:33;;;;;;;10.88;6.47;;;;;;;;;;5111627;28;20433;-66
2023/07/22 12:15:04;;;;;;;11.82;5.90;;;;;;;;;;5111067;28;20067;-66
2023/07/22 12:17:30;;;;;;;9.98;5.10;;;;;;;;;;5118340;28;20487;-66
2023/07/22 12:19:56;;;;;;;12.85;6.30;;;;;;;;;;5116877;28;20085;-66
2023/07/22 12:22:22;;;;;;;10.27;5.95;;;;;;;;;;5118961;27;20115;-66
2023/07/22 12:24:49;;;;;;;8.75;5.93;;;;;;;;;;5119079;27;20467;-66
2023/07/22 12:27:15;;;;;;;8.07;5.45;;;;;;;;;;5116941;28;20066;-66
2023/07/22 12:29:42;;;;;;;8.27;5.72;;;;;;;;;;5117144;28;20177;-66
2023/07/22 12:32:09;;;;;;;11.18;5.38;;;;;;;;;;5118634;27;20060;-66
2023/07/22 12:34:36;;;;;;;9.95;5.40;;;;;;;;;;5118302;28;20135;-66
2023/07/22 12:37:02;;;;;;;9.93;5.20;;;;;;;;;;5117571;28;20376;-66
2023/07/22 12:39:29;;;;;;;8.27;4.78;;;;;;;;;;5117813;28;20126;-66
2023/07/22 12:41:55;;;;;;;8.60;6.03;;;;;;;;;;5117916;28;20043;-66
2023/07/22 12:44:21;;;;;;;10.13;6.68;;;;;;;;;;5134835;27;20039;-66
2023/07/22 12:46:47;;;;;;;11.23;6.63;;;;;;;;;;5118810;27;20043;-66
2023/07/22 12:49:14;;;;;;;9.77;6.22;;;;;;;;;;5117571;28;20088;-66
2023/07/22 12:51:40;;;;;;;10.15;7.50;;;;;;;;;;5118337;28;20051;-66
2023/07/22 12:54:06;;;;;;;10.82;7.00;;;;;;;;;;5118778;28;20058;-66
2023/07/22 12:56:32;;;;;;;11.30;8.00;;;;;;;;;;5117792;27;20040;-66
2023/07/22 12:58:58;;;;;;;14.02;7.65;;;;;;;;;;5118648;28;20610;-66
2023/07/22 13:01:24;;;;;;;12.95;7.85;;;;;;;;;;5118173;28;20043;-66
2023/07/22 13:03:51;;;;;;;10.95;7.50;;;;;;;;;;5118092;28;20085;-66
2023/07/22 13:06:17;;;;;;;11.50;6.68;;;;;;;;;;5118285;28;20035;-66
2023/07/22 13:08:43;;;;;;;12.73;6.20;;;;;;;;;;5117135;28;20036;-66
2023/07/22 13:11:09;;;;;;;11.13;5.45;;;;;;;;;;5118614;27;20039;-66
2023/07/22 13:13:35;;;;;;;10.85;5.63;;;;;;;;;;5118215;28;20051;-66
2023/07/22 13:16:02;;;;;;;13.85;6.30;;;;;;;;;;5117786;28;20044;-66
2023/07/22 13:18:28;;;;;;;8.50;4.72;;;;;;;;;;5118591;27;20129;-66
2023/07/22 13:20:54;;;;;;;17.33;5.18;;;;;;;;;;5117166;28;20483;-66
2023/07/22 13:23:20;;;;;;;13.10;4.82;;;;;;;;;;5107558;28;20491;-65
2023/07/22 13:25:46;;;;;;;13.98;5.22;;;;;;;;;;5117607;28;20047;-65
2023/07/22 13:28:13;;;;;;;12.77;5.43;;;;;;;;;;5114958;28;20044;-65
2023/07/22 13:30:39;;;;;;;14.20;5.13;;;;;;;;;;5113955;28;20040;-66
2023/07/22 13:33:05;;;;;;;13.00;5.25;;;;;;;;;;5115371;28;20036;-66
2023/07/22 13:35:31;;;;;;;12.95;5.75;;;;;;;;;;5114948;28;20047;-66
2023/07/22 13:37:57;;;;;;;11.38;5.93;;;;;;;;;;5113077;28;20440;-66
2023/07/22 13:40:24;;;;;;;15.55;7.10;;;;;;;;;;5114715;28;20040;-66
2023/07/22 13:42:50;;;;;;;12.18;5.57;;;;;;;;;;5115043;27;20031;-66
2023/07/22 13:45:16;;;;;;;13.25;6.13;;;;;;;;;;5114087;28;20035;-66
2023/07/22 13:47:42;;;;;;;13.48;6.35;;;;;;;;;;5114909;28;20431;-66
2023/07/22 13:50:09;;;;;;;10.57;5.70;;;;;;;;;;5114468;27;20084;-66
2023/07/22 13:52:35;;;;;;;14.07;6.20;;;;;;;;;;5113858;28;20044;-66
2023/07/22 13:55:01;;;;;;;11.32;5.95;;;;;;;;;;5100334;28;20039;-66
2023/07/22 13:57:28;;;;;;;11.55;5.60;;;;;;;;;;5111597;28;20048;-66
2023/07/22 13:59:54;;;;;;;10.23;4.57;;;;;;;;;;5113647;28;20036;-66
2023/07/22 14:02:21;;;;;;;11.77;5.05;;;;;;;;;;5113992;28;20043;-66
2023/07/22 14:04:47;;;;;;;13.38;6.10;;;;;;;;;;5113590;28;20502;-66
2023/07/22 14:07:13;;;;;;;12.70;6.07;;;;;;;;;;5113430;28;20051;-66
2023/07/22 14:09:39;;;;;;;15.10;6.72;;;;;;;;;;5113481;27;20039;-66
2023/07/22 14:12:06;;;;;;;13.73;5.72;;;;;;;;;;5113165;28;20032;-66
2023/07/22 14:14:33;;;;;;;12.50;5.45;;;;;;;;;;5113603;27;20039;-66
2023/07/22 14:16:59;;;;;;;8.82;5.93;;;;;;;;;;5114309;28;20433;-66
2023/07/22 14:19:25;;;;;;;14.75;6.03;;;;;;;;;;5113408;27;20035;-66
2023/07/22 14:21:51;;;;;;;11.65;6.28;;;;;;;;;;5113958;28;20131;-66
2023/07/22 14:24:18;;;;;;;13.77;6.47;;;;;;;;;;5114288;27;20075;-66
2023/07/22 14:26:44;;;;;;;11.73;6.60;;;;;;;;;;5113343;28;20443;-66
2023/07/22 14:29:10;;;;;;;19.58;6.97;;;;;;;;;;5113591;28;20378;-66
2023/07/22 14:31:36;;;;;;;14.23;7.30;;;;;;;;;;5113832;28;20079;-66